createdAt,value
2019-01-04T00:02:49.955Z,-0.3
2019-01-04T00:07:48.341Z,-0.3
2019-01-04T00:12:46.547Z,-0.3
2019-01-04T00:17:44.984Z,-0.8
2019-01-04T00:22:43.374Z,-0.3
2019-01-04T00:27:41.841Z,-0.4
2019-01-04T00:32:39.622Z,-0.4
2019-01-04T00:37:37.932Z,-0.9
2019-01-04T00:42:36.217Z,-0.9
2019-01-04T00:47:34.794Z,-0.4
2019-01-04T00:52:33.070Z,-0.4
2019-01-04T00:57:31.410Z,-0.9
2019-01-04T01:02:29.728Z,-1
2019-01-04T01:07:28.255Z,-1
2019-01-04T01:12:26.629Z,-0.5
2019-01-04T01:17:25.026Z,-1
2019-01-04T01:22:23.244Z,-0.5
2019-01-04T01:27:21.558Z,-1
2019-01-04T01:32:19.956Z,-0.6
2019-01-04T01:37:18.300Z,-1.1
2019-01-04T01:42:16.609Z,-1.1
2019-01-04T01:47:15.072Z,-1.1
2019-01-04T01:52:13.407Z,-1.1
2019-01-04T01:57:11.604Z,-1.1
2019-01-04T02:02:09.732Z,-1.1
2019-01-04T02:07:08.238Z,-1.1
2019-01-04T02:12:06.630Z,-0.7
2019-01-04T02:17:05.008Z,-1.2
2019-01-04T02:22:02.814Z,-0.7
2019-01-04T02:27:01.117Z,-1.2
2019-01-04T02:31:59.459Z,-0.7
2019-01-04T02:36:57.946Z,-1.2
2019-01-04T02:41:55.922Z,-1.2
2019-01-04T02:46:54.375Z,-1.2
2019-01-04T02:51:52.597Z,-1.2
2019-01-04T02:56:50.781Z,-1.3
2019-01-04T03:01:48.966Z,-1.3
2019-01-04T03:06:47.296Z,-1.3
2019-01-04T03:11:45.145Z,-1.3
2019-01-04T03:16:43.375Z,-1.3
2019-01-04T03:21:41.841Z,-1.3
2019-01-04T03:26:39.986Z,-1.4
2019-01-04T03:31:38.277Z,-1.4
2019-01-04T03:36:36.409Z,-1.4
2019-01-04T03:41:34.767Z,-1.4
2019-01-04T03:46:33.106Z,-1.4
2019-01-04T03:51:30.943Z,-0.9
2019-01-04T03:56:29.453Z,-1
2019-01-04T04:01:27.873Z,-1.4
2019-01-04T04:06:26.265Z,-1
2019-01-04T04:11:24.495Z,-1.5
2019-01-04T04:16:23.011Z,-1.5
2019-01-04T04:21:21.012Z,-1.5
2019-01-04T04:26:19.486Z,-1.5
2019-01-04T04:31:17.768Z,-1.1
2019-01-04T04:36:16.306Z,-1.1
2019-01-04T04:41:14.720Z,-1.6
2019-01-04T04:46:12.942Z,-1.6
2019-01-04T04:51:11.020Z,-1.6
2019-01-04T04:56:09.587Z,-1.9
2019-01-04T05:01:07.374Z,-1.1
2019-01-04T05:06:05.475Z,-1.6
2019-01-04T05:11:03.848Z,-1.6
2019-01-04T05:16:02.278Z,-1.7
2019-01-04T05:21:00.375Z,-1.7
2019-01-04T05:25:58.858Z,-1.2
2019-01-04T05:30:57.012Z,-1.7
2019-01-04T05:35:55.341Z,-1.7
2019-01-04T05:40:53.057Z,-1.8
2019-01-04T05:45:51.461Z,-1.8
2019-01-04T05:50:49.729Z,-1.7
2019-01-04T05:55:47.689Z,-1.8
2019-01-04T06:00:45.812Z,-1.8
2019-01-04T06:05:43.515Z,-1.8
2019-01-04T06:10:41.826Z,-1.8
2019-01-04T06:15:40.124Z,-2
2019-01-04T06:20:38.498Z,-1.8
2019-01-04T06:25:36.896Z,-1.9
2019-01-04T06:30:35.051Z,-1.9
2019-01-04T06:35:33.406Z,-1.4
2019-01-04T06:40:31.629Z,-1.9
2019-01-04T06:45:30.182Z,-1.4
2019-01-04T06:50:28.478Z,-1.9
2019-01-04T06:55:26.737Z,-1.9
2019-01-04T07:00:24.584Z,-1.7
2019-01-04T07:05:23.038Z,-2
2019-01-04T07:10:21.633Z,-2
2019-01-04T07:15:19.961Z,-2
2019-01-04T07:20:18.362Z,-2
2019-01-04T07:25:16.851Z,-2
2019-01-04T07:30:15.224Z,-1.5
2019-01-04T07:35:13.593Z,-2
2019-01-04T07:40:11.677Z,-2
2019-01-04T07:45:10.112Z,-1.6
2019-01-04T07:50:08.698Z,-2.1
2019-01-04T07:55:06.996Z,-2.1
2019-01-04T08:00:05.424Z,-1.6
2019-01-04T08:05:03.432Z,-2.1
2019-01-04T08:10:01.452Z,-1.6
2019-01-04T08:14:59.870Z,-2.1
2019-01-04T08:19:58.269Z,-2.1
2019-01-04T08:24:56.690Z,-2.1
2019-01-04T08:29:55.035Z,-1.6
2019-01-04T08:34:53.590Z,-2.1
2019-01-04T08:39:51.669Z,-1.6
2019-01-04T08:44:50.137Z,-2.1
2019-01-04T08:49:48.493Z,-1.6
2019-01-04T08:54:46.651Z,-2.1
2019-01-04T09:25:04.544Z,-1.6
2019-01-04T09:30:02.981Z,-2.1
2019-01-04T09:35:01.112Z,-2
2019-01-04T09:39:59.874Z,-1.6
2019-01-04T09:44:58.561Z,-1.6
2019-01-04T09:49:57.042Z,-2.1
2019-01-04T09:54:55.558Z,-1.6
2019-01-04T09:59:53.872Z,-2.1
2019-01-04T10:04:52.343Z,-2
2019-01-04T10:09:50.882Z,-2.1
2019-01-04T10:14:49.069Z,-2
2019-01-04T10:19:47.292Z,-2
2019-01-04T10:24:45.891Z,-1.6
2019-01-04T10:29:44.244Z,-2
2019-01-04T10:34:42.627Z,-2
2019-01-04T10:39:40.992Z,-2
2019-01-04T10:44:39.541Z,-2
2019-01-04T10:49:37.797Z,-2
2019-01-04T10:54:36.045Z,-2
2019-01-04T10:59:34.403Z,-2
2019-01-04T11:04:32.739Z,-2
2019-01-04T11:09:31.115Z,-2
2019-01-04T11:14:29.513Z,-1.5
2019-01-04T11:19:27.930Z,-1.9
2019-01-04T11:24:26.241Z,-1.5
2019-01-04T11:29:24.134Z,-2
2019-01-04T11:34:22.746Z,-1.4
2019-01-04T11:39:21.051Z,-1.9
2019-01-04T11:44:19.272Z,-1.9
2019-01-04T11:49:17.644Z,-1.9
2019-01-04T11:54:16.034Z,-1.9
2019-01-04T11:59:14.443Z,-1.9
2019-01-04T12:04:12.903Z,-1.9
2019-01-04T12:09:11.479Z,-1.8
2019-01-04T12:14:09.805Z,-1.8
2019-01-04T12:19:08.294Z,-1.3
2019-01-04T12:24:06.844Z,-1.8
2019-01-04T12:29:06.371Z,-1.7
2019-01-04T12:34:04.525Z,-1.8
2019-01-04T12:39:02.702Z,-1.7
2019-01-04T12:44:01.193Z,-1.7
2019-01-04T12:48:59.716Z,-1.7
2019-01-04T12:53:57.962Z,-1.7
2019-01-04T12:58:56.464Z,-1.7
2019-01-04T13:03:55.011Z,-1.4
2019-01-04T13:08:53.413Z,-1.7
2019-01-04T13:13:51.957Z,-1.6
2019-01-04T13:18:50.300Z,-1.6
2019-01-04T13:23:48.633Z,-1.6
2019-01-04T13:28:46.969Z,-1.6
2019-01-04T13:33:45.072Z,-1.6
2019-01-04T13:38:43.528Z,-1.1
2019-01-04T13:43:41.989Z,-1.6
2019-01-04T13:48:40.464Z,-1.6
2019-01-04T13:53:38.587Z,-1.6
2019-01-04T13:58:36.922Z,-1.6
2019-01-04T14:03:35.331Z,-1.5
2019-01-04T14:08:33.161Z,-1.5
2019-01-04T14:13:31.047Z,-1.5
2019-01-04T14:18:29.495Z,-1.5
2019-01-04T14:23:28.849Z,-1.6
2019-01-04T14:28:27.227Z,-1.5
2019-01-04T14:33:25.556Z,-1.5
2019-01-04T14:38:23.859Z,-1.5
2019-01-04T14:43:22.448Z,-1.5
2019-01-04T14:48:20.868Z,-1.5
2019-01-04T14:53:19.183Z,-1.5
2019-01-04T14:58:17.412Z,-1.5
2019-01-04T15:03:15.814Z,-1.5
2019-01-04T15:08:14.326Z,-1.5
2019-01-04T15:13:12.739Z,-1.5
2019-01-04T15:18:11.173Z,-1.5
2019-01-04T15:23:09.638Z,-1.5
2019-01-04T15:28:08.117Z,-1.5
2019-01-04T15:33:06.608Z,-1.5
2019-01-04T15:38:04.952Z,-1.5
2019-01-04T15:43:03.269Z,-1.5
2019-01-04T15:48:01.618Z,-1.5
2019-01-04T15:52:59.835Z,-1.4
2019-01-04T15:57:58.358Z,-1
2019-01-04T16:02:56.669Z,-1.5
2019-01-04T16:07:55.179Z,-1
2019-01-04T16:12:53.676Z,-1.5
2019-01-04T16:17:52.145Z,-1.5
2019-01-04T16:22:50.503Z,-1.5
2019-01-04T16:27:48.789Z,-1.5
2019-01-04T16:32:47.189Z,-1.5
2019-01-04T16:37:45.580Z,-1
2019-01-04T16:42:43.899Z,-1
2019-01-04T16:47:41.749Z,-1.5
2019-01-04T16:52:40.329Z,-1.5
2019-01-04T16:57:38.757Z,-1.5
2019-01-04T17:02:37.149Z,-1.5
2019-01-04T17:07:35.440Z,-1.5
2019-01-04T17:12:33.747Z,-1.5
2019-01-04T17:17:32.161Z,-1.5
2019-01-04T17:22:30.609Z,-1.6
2019-01-04T17:27:28.805Z,-1.5
2019-01-04T17:32:26.592Z,-1.6
2019-01-04T17:37:25.111Z,-1.6
2019-01-04T17:42:23.698Z,-1.5
2019-01-04T17:47:22.171Z,-1.1
2019-01-04T17:52:20.467Z,-1.6
2019-01-04T17:57:19.023Z,-1.1
2019-01-04T18:02:17.393Z,-1.6
2019-01-04T18:07:15.765Z,-1.6
2019-01-04T18:12:14.078Z,-1.1
2019-01-04T18:17:12.181Z,-1.1
2019-01-04T18:22:10.591Z,-1.1
2019-01-04T18:27:08.870Z,-1.6
2019-01-04T18:32:07.042Z,-1.2
2019-01-04T18:37:05.471Z,-1.2
2019-01-04T18:42:03.819Z,-1.2
2019-01-04T18:47:02.030Z,-1.2
2019-01-04T18:52:00.471Z,-1.2
2019-01-04T18:56:58.750Z,-1.2
2019-01-04T19:01:57.122Z,-1.7
2019-01-04T19:06:55.377Z,-1.3
2019-01-04T19:11:53.355Z,-1.3
2019-01-04T19:16:51.539Z,-1.3
2019-01-04T19:21:49.762Z,-1.8
2019-01-04T19:26:48.340Z,-1.3
2019-01-04T19:31:46.658Z,-1.3
2019-01-04T19:36:44.971Z,-1.3
2019-01-04T19:41:43.514Z,-1.3
2019-01-04T19:46:42.004Z,-1.3
2019-01-04T19:51:40.507Z,-1.3
2019-01-04T19:56:38.950Z,-1.3
2019-01-04T20:01:37.287Z,-1.4
2019-01-04T20:06:35.776Z,-1.9
2019-01-04T20:11:34.429Z,-1.9
2019-01-04T20:16:32.528Z,-1.4
2019-01-04T20:21:30.873Z,-1.9
2019-01-04T20:26:29.163Z,-1.4
2019-01-04T20:31:27.115Z,-1.4
2019-01-04T20:36:24.718Z,-1.4
2019-01-04T20:41:23.120Z,-1.9
2019-01-04T20:46:20.674Z,-1.5
2019-01-04T20:51:18.814Z,-1.9
2019-01-04T20:56:17.111Z,-2
2019-01-04T21:01:15.434Z,-1.5
2019-01-04T21:06:13.473Z,-1.5
2019-01-04T21:11:11.785Z,-2
2019-01-04T21:16:09.922Z,-2
2019-01-04T21:21:07.649Z,-2
2019-01-04T21:26:05.782Z,-2
2019-01-04T21:31:04.331Z,-2
2019-01-04T21:36:02.647Z,-2
2019-01-04T21:41:00.998Z,-2
2019-01-04T21:45:59.312Z,-2.1
2019-01-04T21:50:57.630Z,-2.2
2019-01-04T21:55:55.952Z,-2.1
2019-01-04T22:00:53.953Z,-2.1
2019-01-04T22:05:52.239Z,-2.1
2019-01-04T22:10:50.527Z,-2.2
2019-01-04T22:15:49.006Z,-2.1
2019-01-04T22:20:47.324Z,-2.2
2019-01-04T22:25:45.738Z,-2.1
2019-01-04T22:30:44.068Z,-2.2
2019-01-04T22:35:42.442Z,-2.2
2019-01-04T22:40:40.726Z,-2.2
2019-01-04T22:45:38.862Z,-2.2
2019-01-04T22:50:37.078Z,-2.2
2019-01-04T22:55:35.547Z,-2.2
2019-01-04T23:00:33.944Z,-2.2
2019-01-04T23:05:31.908Z,-2.3
2019-01-04T23:10:29.874Z,-2.2
2019-01-04T23:15:27.749Z,-2.2
2019-01-04T23:20:25.564Z,-2.3
2019-01-04T23:25:24.005Z,-1.8
2019-01-04T23:30:22.189Z,-2.3
2019-01-04T23:35:20.690Z,-2.5
2019-01-04T23:40:18.961Z,-2.5
2019-01-04T23:45:17.324Z,-1.9
2019-01-04T23:50:15.607Z,-2.3
2019-01-04T23:55:13.944Z,-2.4
